Time;durP1;ratioP1;P1;durP2;ratioP2;P2;SDS_P1;SDS_P2;PMS_P1;PMS_P2;Temp;Humidity;BMP_temperature;BMP_pressure;BME280_temperature;BME280_humidity;BME280_pressure;Samples;Min_cycle;Max_cycle;Signal;HPM_P1;HPM_P2
2024/01/13 00:01:48;;;;;;;29.92;9.55;;;;;;;-2.87;100.00;100048.78;5014352;28;20495;-57
2024/01/13 00:04:14;;;;;;;26.42;8.82;;;;;;;-2.92;100.00;100039.41;5008907;28;20033;-57
2024/01/13 00:06:39;;;;;;;30.35;9.40;;;;;;;-2.82;100.00;100045.88;5006966;28;20038;-57
2024/01/13 00:09:06;;;;;;;30.75;10.20;;;;;;;-2.66;100.00;100033.47;5012549;28;20032;-57
2024/01/13 00:11:32;;;;;;;26.88;9.05;;;;;;;-2.55;100.00;100035.47;5007202;28;20045;-57
2024/01/13 00:13:57;;;;;;;32.28;10.05;;;;;;;-2.90;100.00;99979.28;5066112;22;20049;-79
2024/01/13 00:16:22;;;;;;;25.13;9.52;;;;;;;-2.82;100.00;99968.25;5043949;28;20030;-79
2024/01/13 00:18:48;;;;;;;22.75;8.48;;;;;;;-2.84;100.00;99941.00;5040378;28;20022;-79
2024/01/13 00:21:13;;;;;;;25.90;9.93;;;;;;;-2.74;100.00;99969.50;5040317;28;20016;-79
2024/01/13 00:23:38;;;;;;;28.45;10.02;;;;;;;-2.98;100.00;99945.31;5032295;28;20049;-79
2024/01/13 00:26:04;;;;;;;26.88;10.43;;;;;;;-2.97;100.00;99997.28;5042454;28;20093;-79
2024/01/13 00:28:29;;;;;;;28.73;9.90;;;;;;;-3.40;100.00;99945.97;5027132;28;20089;-79
2024/01/13 00:30:54;;;;;;;32.03;9.82;;;;;;;-3.26;100.00;99995.47;5023465;28;20075;-78
2024/01/13 00:33:20;;;;;;;30.77;10.75;;;;;;;-3.56;100.00;99943.34;5030934;28;20396;-79
2024/01/13 00:35:45;;;;;;;31.55;10.10;;;;;;;-3.54;100.00;99954.66;5011529;28;20018;-78
2024/01/13 00:38:30;;;;;;;33.53;10.27;;;;;;;-3.19;100.00;100004.78;5105907;23;20628;-50
2024/01/13 00:40:55;;;;;;;33.72;11.82;;;;;;;-3.17;100.00;100008.16;5028114;28;20034;-50
2024/01/13 00:43:21;;;;;;;31.02;10.65;;;;;;;-3.06;100.00;100002.28;5036733;28;20025;-50
2024/01/13 00:45:46;;;;;;;32.17;10.43;;;;;;;-2.84;100.00;100004.53;5035552;28;20086;-50
2024/01/13 00:48:11;;;;;;;30.83;10.25;;;;;;;-2.74;100.00;99997.78;5028527;28;20384;-50
2024/01/13 00:50:38;;;;;;;34.60;11.90;;;;;;;-2.85;100.00;100003.69;5308137;22;20048;-51
2024/01/13 00:53:03;;;;;;;32.25;10.75;;;;;;;-2.90;100.00;99996.00;5139950;22;20519;-50
2024/01/13 00:55:29;;;;;;;32.25;11.32;;;;;;;-2.80;100.00;99999.00;5034128;28;20033;-50
2024/01/13 00:57:54;;;;;;;33.80;10.57;;;;;;;-2.81;100.00;99993.78;5039833;28;20035;-50
2024/01/13 01:00:20;;;;;;;33.67;11.05;;;;;;;-2.85;100.00;100003.69;5041855;28;20041;-61
2024/01/13 01:02:45;;;;;;;36.95;11.63;;;;;;;-3.04;100.00;100005.69;5037380;28;20025;-50
2024/01/13 01:05:10;;;;;;;30.77;10.25;;;;;;;-3.17;100.00;99992.28;5040903;28;20103;-50
2024/01/13 01:07:36;;;;;;;36.10;11.05;;;;;;;-3.35;100.00;99994.19;5036623;28;20104;-50
2024/01/13 01:10:01;;;;;;;37.35;11.57;;;;;;;-3.47;100.00;99985.13;5036068;28;20479;-50
2024/01/13 01:12:26;;;;;;;26.02;10.32;;;;;;;-3.25;100.00;99999.81;5037038;28;20099;-51
2024/01/13 01:14:52;;;;;;;34.67;11.70;;;;;;;-3.14;100.00;99989.50;5044784;28;20025;-50
2024/01/13 01:17:17;;;;;;;27.92;9.48;;;;;;;-3.06;100.00;99979.31;5030845;28;20468;-50
2024/01/13 01:19:42;;;;;;;27.85;10.75;;;;;;;-3.06;100.00;99984.59;5043336;28;20032;-50
2024/01/13 01:22:08;;;;;;;26.60;8.63;;;;;;;-2.92;100.00;99986.44;5044977;28;20033;-50
2024/01/13 01:32:50;;;;;;;27.35;9.95;;;;;;;-2.83;100.00;99974.47;5008676;28;20125;-50
2024/01/13 01:35:15;;;;;;;28.52;9.73;;;;;;;-2.72;100.00;99977.34;5018289;28;20121;-50
2024/01/13 01:37:41;;;;;;;26.90;9.98;;;;;;;-2.71;100.00;99971.94;5016516;28;20087;-50
2024/01/13 01:40:08;;;;;;;24.08;9.45;;;;;;;-2.63;100.00;99963.56;5012717;28;20398;-50
2024/01/13 01:42:33;;;;;;;27.67;9.90;;;;;;;-2.68;100.00;99961.16;5016461;28;20026;-50
2024/01/13 01:44:59;;;;;;;27.70;10.68;;;;;;;-2.66;100.00;99964.59;5015368;28;20041;-50
2024/01/13 01:47:27;;;;;;;30.27;10.07;;;;;;;-2.82;100.00;99957.66;5016051;28;20029;-50
2024/01/13 01:49:52;;;;;;;27.83;11.00;;;;;;;-2.87;100.00;99956.09;5001797;28;20029;-50
2024/01/13 01:52:18;;;;;;;24.08;9.23;;;;;;;-2.98;100.00;99953.25;5008487;28;20168;-50
2024/01/13 01:54:43;;;;;;;26.80;9.45;;;;;;;-2.96;100.00;99953.13;5011634;28;20098;-50
2024/01/13 01:57:16;;;;;;;29.73;10.63;;;;;;;-2.88;100.00;99965.00;5011548;28;20026;-50
2024/01/13 01:59:41;;;;;;;29.42;10.88;;;;;;;-2.93;100.00;99950.34;5016225;28;20377;-50
2024/01/13 02:02:07;;;;;;;28.15;9.65;;;;;;;-2.93;100.00;99952.97;5013674;28;20030;-50
2024/01/13 02:04:33;;;;;;;28.33;10.10;;;;;;;-2.94;100.00;99957.41;5011207;28;20048;-50
2024/01/13 02:07:00;;;;;;;29.60;11.02;;;;;;;-3.16;100.00;99943.72;5009604;28;20045;-50
2024/01/13 02:09:26;;;;;;;25.80;10.15;;;;;;;-3.03;100.00;99946.50;5005299;28;20034;-50
2024/01/13 02:11:52;;;;;;;33.97;11.73;;;;;;;-2.98;100.00;99947.94;4996311;28;20099;-50
2024/01/13 02:14:17;;;;;;;34.88;11.25;;;;;;;-3.05;100.00;99949.25;5008474;28;20076;-50
2024/01/13 02:16:43;;;;;;;28.98;11.10;;;;;;;-2.93;100.00;99955.63;5009472;28;20049;-50
2024/01/13 02:19:08;;;;;;;31.20;11.60;;;;;;;-2.94;100.00;99944.16;5005165;28;20111;-50
2024/01/13 02:21:37;;;;;;;35.17;11.40;;;;;;;-3.05;100.00;99932.50;5006841;28;20065;-50
2024/01/13 02:24:02;;;;;;;30.42;10.23;;;;;;;-3.02;100.00;99949.06;5007083;28;20476;-50
2024/01/13 02:26:29;;;;;;;30.15;10.73;;;;;;;-2.91;100.00;99944.00;5010930;28;20075;-50
2024/01/13 02:28:55;;;;;;;26.52;9.45;;;;;;;-2.98;100.00;99913.53;5009951;28;20025;-50
2024/01/13 02:31:20;;;;;;;31.67;10.63;;;;;;;-2.81;100.00;99917.81;5013799;28;20026;-50
2024/01/13 02:33:45;;;;;;;31.33;11.25;;;;;;;-2.73;100.00;99917.34;5019506;28;20021;-51
2024/01/13 02:36:10;;;;;;;31.77;10.98;;;;;;;-2.65;100.00;99912.44;5011461;28;20029;-49
2024/01/13 02:38:36;;;;;;;31.23;10.43;;;;;;;-2.67;100.00;99911.72;5006976;28;20026;-50
2024/01/13 02:41:01;;;;;;;32.95;10.40;;;;;;;-2.77;100.00;99913.22;4996151;28;20038;-50
2024/01/13 02:43:27;;;;;;;35.42;11.98;;;;;;;-2.90;100.00;99919.22;5010242;28;20068;-50
2024/01/13 02:45:52;;;;;;;32.33;11.88;;;;;;;-3.05;100.00;99901.59;5005963;28;20033;-50
2024/01/13 02:48:20;;;;;;;33.80;11.77;;;;;;;-3.28;100.00;99889.69;5011285;28;20030;-50
2024/01/13 02:50:55;;;;;;;34.30;11.13;;;;;;;-3.15;100.00;99908.34;5011734;28;20018;-49
2024/01/13 02:53:20;;;;;;;34.78;11.18;;;;;;;-3.22;100.00;99899.06;4995191;28;20018;-49
2024/01/13 02:55:45;;;;;;;30.50;11.15;;;;;;;-3.22;100.00;99907.00;5008124;28;20093;-49
2024/01/13 02:58:11;;;;;;;29.27;10.90;;;;;;;-3.27;100.00;99907.28;5004413;28;20084;-49
2024/01/13 03:00:36;;;;;;;39.55;11.70;;;;;;;-3.25;100.00;99901.88;5007817;28;20034;-50
2024/01/13 03:03:02;;;;;;;38.75;11.07;;;;;;;-3.41;100.00;99902.78;5013632;28;20383;-50
2024/01/13 03:05:27;;;;;;;35.47;11.95;;;;;;;-3.39;100.00;99903.53;5014577;28;20512;-50
2024/01/13 03:07:53;;;;;;;35.85;11.30;;;;;;;-3.38;100.00;99899.09;4999159;28;20052;-50
2024/01/13 03:10:18;;;;;;;34.72;11.43;;;;;;;-3.31;100.00;99888.06;5016319;28;20033;-50
2024/01/13 03:12:44;;;;;;;28.88;10.93;;;;;;;-3.29;100.00;99903.03;5008927;28;20030;-56
2024/01/13 03:15:10;;;;;;;39.40;12.95;;;;;;;-3.41;100.00;99891.34;5011928;28;20021;-56
2024/01/13 03:17:36;;;;;;;31.17;11.13;;;;;;;-3.38;100.00;99889.38;5012413;28;20033;-56
2024/01/13 03:20:02;;;;;;;30.05;10.48;;;;;;;-3.31;100.00;99880.13;5017157;28;20053;-56
2024/01/13 03:22:27;;;;;;;37.10;10.70;;;;;;;-3.23;100.00;99894.72;5005556;28;20030;-56
2024/01/13 03:24:53;;;;;;;32.92;10.82;;;;;;;-3.08;100.00;99876.16;5008023;28;20036;-56
2024/01/13 03:27:18;;;;;;;30.55;10.40;;;;;;;-2.98;100.00;99888.84;5015036;28;20030;-56
2024/01/13 03:29:44;;;;;;;33.17;10.52;;;;;;;-3.00;100.00;99888.94;5014317;28;20477;-56
2024/01/13 03:32:09;;;;;;;37.38;10.80;;;;;;;-3.16;100.00;99883.69;5007957;28;20366;-58
2024/01/13 03:34:34;;;;;;;30.25;10.80;;;;;;;-3.11;100.00;99884.28;5005294;28;20043;-55
2024/01/13 03:37:00;;;;;;;32.30;11.15;;;;;;;-3.16;100.00;99891.63;5015663;28;20030;-56
2024/01/13 03:39:25;;;;;;;29.98;10.20;;;;;;;-3.16;100.00;99882.84;5014792;28;20029;-56
2024/01/13 03:41:50;;;;;;;34.15;10.43;;;;;;;-3.22;100.00;99873.47;5016527;28;20061;-56
2024/01/13 03:44:16;;;;;;;27.58;9.30;;;;;;;-3.27;100.00;99869.41;5011264;28;20040;-56
2024/01/13 03:46:41;;;;;;;31.88;10.43;;;;;;;-3.31;100.00;99874.00;5009081;28;20022;-56
2024/01/13 03:49:06;;;;;;;29.60;9.60;;;;;;;-3.29;100.00;99874.75;5016075;28;20026;-56
2024/01/13 03:51:32;;;;;;;29.77;10.77;;;;;;;-3.32;100.00;99883.72;4992067;28;20076;-56
2024/01/13 03:53:57;;;;;;;28.38;10.00;;;;;;;-3.42;100.00;99882.56;5014912;28;20058;-57
2024/01/13 03:56:22;;;;;;;31.40;10.73;;;;;;;-3.51;100.00;99872.53;5016696;28;20377;-56
2024/01/13 03:58:48;;;;;;;35.28;11.52;;;;;;;-3.55;100.00;99870.97;5015479;28;20092;-56
2024/01/13 04:01:15;;;;;;;28.77;9.60;;;;;;;-3.71;100.00;99854.28;5013094;28;20022;-56
2024/01/13 04:03:40;;;;;;;28.85;9.10;;;;;;;-3.70;100.00;99856.81;5005021;28;20022;-56
2024/01/13 04:06:06;;;;;;;35.03;12.13;;;;;;;-3.66;100.00;99849.59;4999396;28;20041;-56
2024/01/13 04:08:32;;;;;;;34.13;10.30;;;;;;;-3.65;100.00;99859.22;5017984;28;20026;-56
2024/01/13 04:10:58;;;;;;;30.33;10.40;;;;;;;-3.68;100.00;99854.94;5016857;28;20401;-50
2024/01/13 04:13:24;;;;;;;39.38;11.50;;;;;;;-3.66;100.00;99852.22;5008894;28;20034;-50
2024/01/13 04:15:49;;;;;;;28.58;9.55;;;;;;;-3.59;100.00;99849.16;5013120;28;20034;-50
2024/01/13 04:18:14;;;;;;;31.20;11.05;;;;;;;-3.47;100.00;99852.03;5016682;28;20026;-50
2024/01/13 04:20:40;;;;;;;31.80;10.65;;;;;;;-3.57;100.00;99851.69;5010787;28;20026;-50
2024/01/13 04:23:05;;;;;;;27.90;9.57;;;;;;;-3.65;100.00;99840.69;5014675;28;20092;-51
2024/01/13 04:25:31;;;;;;;31.92;11.10;;;;;;;-3.74;100.00;99834.16;5011457;28;20042;-50
2024/01/13 04:27:56;;;;;;;32.63;10.55;;;;;;;-3.62;100.00;99828.13;5015116;28;20018;-50
2024/01/13 04:30:22;;;;;;;33.25;11.23;;;;;;;-3.63;100.00;99807.09;5014520;28;20041;-50
2024/01/13 04:32:47;;;;;;;35.88;10.00;;;;;;;-3.63;100.00;99810.59;5012758;28;20545;-50
2024/01/13 04:35:13;;;;;;;28.73;10.15;;;;;;;-3.65;100.00;99819.53;5018725;28;20488;-50
2024/01/13 04:37:39;;;;;;;29.77;10.00;;;;;;;-3.68;100.00;99817.09;5008139;28;20536;-49
2024/01/13 04:40:05;;;;;;;33.97;11.05;;;;;;;-3.68;100.00;99811.78;5008263;28;20136;-50
2024/01/13 04:42:33;;;;;;;30.15;10.63;;;;;;;-3.70;100.00;99801.28;5017304;28;20032;-50
2024/01/13 04:44:59;;;;;;;27.15;9.50;;;;;;;-3.66;100.00;99808.13;5014180;28;20040;-56
2024/01/13 04:47:24;;;;;;;37.53;10.43;;;;;;;-3.74;100.00;99813.00;5014015;28;20037;-56
2024/01/13 04:49:50;;;;;;;33.33;10.50;;;;;;;-3.86;100.00;99814.53;5011570;28;20057;-56
2024/01/13 04:52:15;;;;;;;30.95;10.50;;;;;;;-3.86;100.00;99816.34;5016794;28;20029;-56
2024/01/13 04:54:41;;;;;;;38.25;11.65;;;;;;;-3.89;100.00;99801.50;5015546;28;20426;-55
2024/01/13 04:57:15;;;;;;;32.80;10.48;;;;;;;-3.84;100.00;99815.31;5301731;22;20037;-50
2024/01/13 04:59:40;;;;;;;37.65;10.35;;;;;;;-3.99;100.00;99827.59;5030711;28;20461;-50
2024/01/13 05:02:06;;;;;;;32.45;10.98;;;;;;;-3.89;100.00;99822.66;5034276;28;20033;-49
2024/01/13 05:04:31;;;;;;;34.58;10.48;;;;;;;-3.91;100.00;99811.31;5032871;28;20029;-49
2024/01/13 05:06:57;;;;;;;38.03;10.48;;;;;;;-3.96;100.00;99813.34;5030515;28;20483;-49
2024/01/13 05:09:22;;;;;;;36.13;11.25;;;;;;;-4.05;100.00;99811.25;5032078;28;20053;-49
2024/01/13 05:11:48;;;;;;;40.28;11.63;;;;;;;-4.09;100.00;99815.81;5034593;28;20025;-49
2024/01/13 05:14:15;;;;;;;33.53;11.05;;;;;;;-4.16;100.00;99821.56;5034899;28;20044;-49
2024/01/13 05:16:40;;;;;;;38.25;9.85;;;;;;;-4.12;100.00;99820.44;5023673;28;20113;-49
2024/01/13 05:19:06;;;;;;;33.80;10.70;;;;;;;-4.27;100.00;99822.13;5029772;28;20116;-48
2024/01/13 05:21:32;;;;;;;38.65;12.27;;;;;;;-4.29;100.00;99813.47;5023528;28;20040;-48
2024/01/13 05:23:57;;;;;;;36.42;11.38;;;;;;;-4.32;100.00;99822.41;5039405;28;20428;-48
2024/01/13 05:26:22;;;;;;;33.55;11.27;;;;;;;-4.31;100.00;99812.69;5034068;28;20488;-48
2024/01/13 05:28:48;;;;;;;40.67;11.57;;;;;;;-4.19;100.00;99806.75;5011076;28;20128;-48
2024/01/13 05:31:16;;;;;;;39.10;10.57;;;;;;;-4.11;100.00;99795.72;5026296;28;20460;-48
2024/01/13 05:33:41;;;;;;;37.70;11.48;;;;;;;-4.18;100.00;99803.16;5022814;28;20072;-48
2024/01/13 05:36:06;;;;;;;42.85;10.45;;;;;;;-4.29;100.00;99805.53;5031248;28;20465;-49
2024/01/13 05:38:32;;;;;;;35.45;9.75;;;;;;;-4.29;100.00;99813.47;5032129;28;20060;-49
2024/01/13 05:40:57;;;;;;;39.83;10.30;;;;;;;-4.39;100.00;99805.19;5037470;28;20088;-49
2024/01/13 05:43:22;;;;;;;37.35;10.73;;;;;;;-4.32;100.00;99805.69;5036369;28;20032;-48
2024/01/13 05:45:48;;;;;;;38.45;11.07;;;;;;;-4.33;100.00;99810.13;5024875;28;20083;-57
2024/01/13 05:48:13;;;;;;;41.50;12.00;;;;;;;-4.31;100.00;99812.69;5031896;28;20025;-48
2024/01/13 05:50:39;;;;;;;39.63;10.88;;;;;;;-4.25;100.00;99812.34;5019873;28;20108;-48
2024/01/13 05:53:04;;;;;;;49.90;12.95;;;;;;;-4.19;100.00;99820.78;5030174;28;20103;-48
2024/01/13 05:55:30;;;;;;;44.25;13.70;;;;;;;-4.15;100.00;99818.81;5025156;28;20073;-48
2024/01/13 05:57:56;;;;;;;51.22;14.15;;;;;;;-4.13;100.00;99819.59;5030039;28;20396;-48
2024/01/13 06:00:21;;;;;;;42.55;12.18;;;;;;;-4.13;100.00;99809.03;5026828;28;20109;-48
2024/01/13 06:02:48;;;;;;;47.80;13.93;;;;;;;-4.06;100.00;99810.41;5030084;28;20099;-48
2024/01/13 06:05:14;;;;;;;63.42;14.70;;;;;;;-4.13;100.00;99808.19;5033287;28;20033;-49
2024/01/13 06:07:40;;;;;;;59.42;15.35;;;;;;;-4.09;100.00;99799.13;5011680;28;20029;-49
2024/01/13 06:10:05;;;;;;;62.75;15.02;;;;;;;-4.13;100.00;99805.53;5027660;28;20033;-47
2024/01/13 06:12:31;;;;;;;56.33;15.77;;;;;;;-4.20;100.00;99797.94;5023722;28;20048;-47
2024/01/13 06:14:57;;;;;;;54.72;14.93;;;;;;;-4.25;100.00;99799.97;5030882;28;20030;-47
2024/01/13 06:17:22;;;;;;;59.20;15.48;;;;;;;-4.28;100.00;99802.78;5028664;28;20491;-48
2024/01/13 06:19:48;;;;;;;52.35;15.55;;;;;;;-4.29;100.00;99801.09;5030353;28;20025;-47
2024/01/13 06:22:13;;;;;;;53.75;14.80;;;;;;;-4.26;100.00;99794.78;5029719;28;20037;-48
2024/01/13 06:24:39;;;;;;;57.40;14.52;;;;;;;-4.32;100.00;99768.69;5035905;28;20087;-48
2024/01/13 06:27:06;;;;;;;54.90;15.63;;;;;;;-4.18;100.00;99790.78;5036028;28;20035;-48
2024/01/13 06:29:31;;;;;;;56.53;15.02;;;;;;;-4.09;100.00;99781.47;5029143;28;20025;-48
2024/01/13 06:31:57;;;;;;;55.72;15.00;;;;;;;-4.03;100.00;99788.22;5028837;28;20132;-50
2024/01/13 06:34:22;;;;;;;50.30;13.73;;;;;;;-3.97;100.00;99780.78;5024969;28;20075;-50
2024/01/13 06:36:48;;;;;;;51.15;15.00;;;;;;;-3.86;100.00;99788.09;5027086;28;20035;-49
2024/01/13 06:39:13;;;;;;;46.92;14.63;;;;;;;-3.82;100.00;99781.72;5050372;22;20053;-77
2024/01/13 06:41:38;;;;;;;42.35;13.52;;;;;;;-3.64;100.00;99790.38;5037147;22;20047;-59
2024/01/13 06:44:04;;;;;;;50.08;15.43;;;;;;;-3.70;100.00;99796.00;5035171;28;20033;-59
2024/01/13 06:46:29;;;;;;;43.90;12.55;;;;;;;-3.83;100.00;99780.00;5018420;28;20417;-59
2024/01/13 06:48:55;;;;;;;38.47;12.82;;;;;;;-4.00;100.00;99762.47;5016569;28;20029;-59
2024/01/13 06:51:20;;;;;;;41.92;13.35;;;;;;;-3.96;100.00;99771.06;5024578;28;20026;-59
2024/01/13 06:53:46;;;;;;;47.10;13.55;;;;;;;-4.02;100.00;99777.56;5014767;28;20472;-59
2024/01/13 06:56:11;;;;;;;46.58;13.45;;;;;;;-3.97;100.00;99774.66;5009392;28;20108;-58
2024/01/13 06:58:37;;;;;;;49.65;13.60;;;;;;;-3.97;100.00;99783.44;5013481;28;20066;-58
2024/01/13 07:01:02;;;;;;;46.65;14.57;;;;;;;-3.91;100.00;99781.38;5010785;28;20029;-59
2024/01/13 07:03:27;;;;;;;48.90;13.35;;;;;;;-3.91;100.00;99782.22;5011141;28;20481;-59
2024/01/13 07:05:53;;;;;;;56.17;14.40;;;;;;;-3.97;100.00;99774.66;5009984;28;20025;-59
2024/01/13 07:08:18;;;;;;;47.28;12.52;;;;;;;-3.96;100.00;99765.78;5013595;28;20393;-59
2024/01/13 07:10:44;;;;;;;44.72;12.77;;;;;;;-3.99;100.00;99758.03;4999730;28;20025;-58
2024/01/13 07:13:09;;;;;;;38.95;12.30;;;;;;;-4.10;100.00;99739.28;5016378;28;20018;-59
2024/01/13 07:15:34;;;;;;;47.22;13.18;;;;;;;-4.02;100.00;99766.13;5015413;28;20033;-59
2024/01/13 07:18:00;;;;;;;40.28;13.63;;;;;;;-4.01;100.00;99763.41;5010271;28;20030;-58
2024/01/13 07:20:26;;;;;;;41.03;12.45;;;;;;;-3.87;100.00;99759.13;5008421;28;20060;-59
2024/01/13 07:22:52;;;;;;;47.80;13.73;;;;;;;-3.82;100.00;99746.50;5009626;28;20084;-58
2024/01/13 07:25:17;;;;;;;40.47;12.15;;;;;;;-3.86;100.00;99748.44;5012327;28;20034;-59
2024/01/13 07:27:43;;;;;;;46.22;13.30;;;;;;;-3.91;100.00;99754.94;5006967;28;20075;-58
2024/01/13 07:30:09;;;;;;;37.95;13.00;;;;;;;-3.90;100.00;99749.59;5004149;28;20038;-58
2024/01/13 07:32:34;;;;;;;40.28;12.25;;;;;;;-3.95;100.00;99756.94;5011070;28;20033;-58
2024/01/13 07:34:59;;;;;;;49.47;12.07;;;;;;;-4.03;100.00;99753.88;5010929;28;20467;-59
2024/01/13 07:37:25;;;;;;;38.65;12.45;;;;;;;-3.96;100.00;99752.56;5006710;28;20179;-58
2024/01/13 07:39:50;;;;;;;49.72;15.30;;;;;;;-4.06;100.00;99743.44;5008086;28;20046;-58
2024/01/13 07:42:16;;;;;;;53.00;15.95;;;;;;;-4.01;100.00;99744.03;5008396;28;20037;-59
2024/01/13 07:44:42;;;;;;;47.10;13.88;;;;;;;-4.08;100.00;99734.78;5004852;28;20108;-58
2024/01/13 07:47:08;;;;;;;42.08;13.02;;;;;;;-4.13;100.00;99737.69;5003745;28;20045;-58
2024/01/13 07:49:34;;;;;;;44.28;12.75;;;;;;;-4.08;100.00;99737.44;5007830;28;20470;-58
2024/01/13 07:51:59;;;;;;;51.28;13.55;;;;;;;-4.05;100.00;99742.53;5014426;28;20033;-58
2024/01/13 07:54:25;;;;;;;54.25;16.77;;;;;;;-4.04;100.00;99754.78;5019058;28;20061;-58
2024/01/13 07:56:52;;;;;;;48.70;14.30;;;;;;;-4.14;100.00;99738.59;5014148;28;20018;-58
2024/01/13 07:59:17;;;;;;;47.10;13.50;;;;;;;-4.01;100.00;99736.09;5011335;28;20079;-62
2024/01/13 08:01:44;;;;;;;58.03;14.75;;;;;;;-3.90;100.00;99751.34;5015339;28;20030;-63
2024/01/13 08:04:09;;;;;;;54.88;15.98;;;;;;;-3.84;100.00;99757.16;5018309;28;20484;-64
2024/01/13 08:06:35;;;;;;;49.90;14.57;;;;;;;-3.66;100.00;99772.91;5014206;28;20101;-63
2024/01/13 08:09:03;;;;;;;48.35;14.45;;;;;;;-3.64;100.00;99760.41;5014458;28;20085;-64
2024/01/13 08:11:29;;;;;;;44.45;12.80;;;;;;;-3.61;100.00;99755.81;5005153;28;20431;-63
2024/01/13 08:13:54;;;;;;;43.85;13.35;;;;;;;-3.40;100.00;99768.72;5016997;28;20111;-63
2024/01/13 08:16:20;;;;;;;38.72;11.73;;;;;;;-3.33;100.00;99764.75;5010665;28;20034;-63
2024/01/13 08:18:45;;;;;;;34.60;12.55;;;;;;;-3.31;100.00;99763.72;5014608;28;20022;-64
2024/01/13 08:21:10;;;;;;;35.95;12.20;;;;;;;-3.15;100.00;99760.97;5016225;28;20064;-64
2024/01/13 08:23:36;;;;;;;43.53;11.50;;;;;;;-3.14;100.00;99759.22;5018365;28;20040;-64
2024/01/13 08:26:02;;;;;;;33.85;11.68;;;;;;;-3.07;100.00;99752.59;5018473;28;20046;-63
2024/01/13 08:28:28;;;;;;;30.48;10.35;;;;;;;-3.12;100.00;99749.38;5014725;28;20109;-63
2024/01/13 08:30:54;;;;;;;27.17;9.77;;;;;;;-3.09;100.00;99742.09;5017299;28;20491;-63
2024/01/13 08:33:19;;;;;;;30.55;10.35;;;;;;;-3.05;100.00;99734.81;5019967;28;20114;-64
2024/01/13 08:35:45;;;;;;;26.27;8.70;;;;;;;-3.17;100.00;99732.91;5018364;28;20033;-63
2024/01/13 08:38:11;;;;;;;25.45;8.93;;;;;;;-2.89;100.00;99762.03;5019458;28;20026;-63
2024/01/13 08:40:36;;;;;;;31.75;10.38;;;;;;;-2.82;100.00;99764.34;5025954;28;20120;-63
2024/01/13 08:43:03;;;;;;;24.92;8.73;;;;;;;-2.69;100.00;99765.28;5013687;28;20164;-63
2024/01/13 08:45:33;;;;;;;26.35;8.80;;;;;;;-2.66;100.00;99765.91;5019290;28;20140;-63
2024/01/13 08:47:59;;;;;;;29.25;9.63;;;;;;;-2.67;100.00;99739.53;5013364;28;20084;-63
2024/01/13 08:50:25;;;;;;;25.70;9.88;;;;;;;-2.54;100.00;99768.75;5021356;28;20025;-62
2024/01/13 08:52:56;;;;;;;28.25;9.23;;;;;;;-2.54;100.00;99759.00;5017015;28;20030;-63
2024/01/13 08:55:22;;;;;;;23.08;7.35;;;;;;;-2.56;100.00;99741.50;5016937;28;20032;-63
2024/01/13 08:57:48;;;;;;;27.25;8.07;;;;;;;-2.48;100.00;99750.66;5020226;28;20021;-64
2024/01/13 09:00:14;;;;;;;14.90;5.47;;;;;;;-2.46;100.00;99755.88;5020137;28;20064;-64
2024/01/13 09:02:40;;;;;;;14.52;5.22;;;;;;;-2.59;100.00;99739.91;5015788;28;20172;-64
2024/01/13 09:05:06;;;;;;;20.08;7.53;;;;;;;-2.63;100.00;99734.88;5020974;28;20026;-64
2024/01/13 09:07:33;;;;;;;14.68;5.38;;;;;;;-2.82;100.00;99733.41;5019466;28;20018;-64
2024/01/13 09:09:59;;;;;;;14.13;4.85;;;;;;;-2.74;100.00;99730.28;5016953;28;20057;-64
2024/01/13 09:12:24;;;;;;;12.63;5.30;;;;;;;-2.59;100.00;99718.72;5020526;28;20101;-63
2024/01/13 09:14:50;;;;;;;12.95;4.60;;;;;;;-2.60;100.00;99729.41;5019943;28;20030;-63
2024/01/13 09:17:15;;;;;;;16.70;6.00;;;;;;;-2.43;100.00;99751.22;5014443;28;20030;-63
2024/01/13 09:19:41;;;;;;;15.70;5.90;;;;;;;-2.37;100.00;99738.53;5014094;28;20033;-63
2024/01/13 09:22:06;;;;;;;13.38;5.35;;;;;;;-2.29;100.00;99750.34;5022177;28;20101;-63
2024/01/13 09:24:32;;;;;;;12.70;4.80;;;;;;;-2.16;100.00;99752.22;5017631;28;20140;-63
2024/01/13 09:26:57;;;;;;;11.65;4.35;;;;;;;-2.07;100.00;99752.47;5023801;28;20061;-63
2024/01/13 09:29:22;;;;;;;12.32;4.60;;;;;;;-2.17;100.00;99746.06;5016341;28;20022;-63
2024/01/13 09:31:51;;;;;;;10.45;4.22;;;;;;;-2.13;100.00;99757.31;5000283;28;20049;-63
2024/01/13 09:34:16;;;;;;;10.13;4.55;;;;;;;-2.08;100.00;99749.91;5004120;28;20567;-63
2024/01/13 09:36:42;;;;;;;12.10;5.00;;;;;;;-2.08;100.00;99739.31;5009797;28;20030;-63
2024/01/13 09:39:11;;;;;;;8.75;4.05;;;;;;;-2.21;100.00;99726.00;5014380;28;20058;-63
2024/01/13 09:41:47;;;;;;;12.85;5.07;;;;;;;-2.42;100.00;99715.81;5004731;28;20092;-63
2024/01/13 09:44:27;;;;;;;11.57;3.70;;;;;;;-2.67;100.00;99703.31;5016235;28;20535;-63
2024/01/13 09:46:54;;;;;;;10.93;3.78;;;;;;;-2.56;100.00;99717.66;5013900;28;20112;-63
2024/01/13 09:49:22;;;;;;;8.40;3.80;;;;;;;-2.53;100.00;99715.66;5018148;28;20478;-62
2024/01/13 09:51:48;;;;;;;11.18;4.07;;;;;;;-2.68;100.00;99714.84;5012003;28;20421;-63
2024/01/13 09:54:28;;;;;;;9.65;3.55;;;;;;;-2.61;100.00;99704.72;5017169;28;20489;-63
2024/01/13 09:56:55;;;;;;;7.60;3.42;;;;;;;-2.56;100.00;99705.28;5013168;28;20029;-63
2024/01/13 09:59:22;;;;;;;10.45;4.25;;;;;;;-2.63;100.00;99689.88;5014029;28;20029;-63
2024/01/13 10:01:54;;;;;;;10.05;4.38;;;;;;;-2.55;100.00;99701.66;5022077;28;20029;-63
2024/01/13 10:04:20;;;;;;;12.25;4.75;;;;;;;-2.68;100.00;99700.75;5021690;28;20137;-65
2024/01/13 10:06:50;;;;;;;9.70;3.92;;;;;;;-2.49;100.00;99698.63;5019939;28;20029;-63
2024/01/13 10:09:15;;;;;;;9.38;4.10;;;;;;;-2.36;100.00;99698.66;5011068;28;20038;-64
2024/01/13 10:11:42;;;;;;;12.82;4.50;;;;;;;-2.20;100.00;99687.94;5017652;28;20418;-64
2024/01/13 10:14:08;;;;;;;8.90;4.07;;;;;;;-2.14;100.00;99700.78;5014396;28;20136;-63
2024/01/13 10:16:35;;;;;;;10.52;4.15;;;;;;;-2.06;100.00;99714.38;5016806;28;20057;-64
2024/01/13 10:19:11;;;;;;;13.48;4.65;;;;;;;-2.04;100.00;99704.53;5010117;28;20426;-63
2024/01/13 10:21:37;;;;;;;12.70;4.03;;;;;;;-1.93;100.00;99705.63;5013162;28;20037;-64
2024/01/13 10:24:03;;;;;;;11.60;4.45;;;;;;;-1.91;100.00;99699.28;5016062;28;20029;-64
2024/01/13 10:26:30;;;;;;;12.70;4.95;;;;;;;-1.83;100.00;99702.25;5020885;28;20057;-63
2024/01/13 10:28:56;;;;;;;15.45;5.63;;;;;;;-1.75;100.00;99703.56;5008583;28;20029;-64
2024/01/13 10:31:22;;;;;;;15.63;5.97;;;;;;;-1.87;100.00;99690.16;5018525;28;20025;-63
2024/01/13 10:33:48;;;;;;;10.05;4.25;;;;;;;-1.91;100.00;99675.41;5009366;28;20148;-63
2024/01/13 10:36:24;;;;;;;12.10;4.65;;;;;;;-1.87;100.00;99660.13;5014164;28;20041;-63
2024/01/13 10:38:54;;;;;;;10.45;4.95;;;;;;;-2.10;100.00;99646.59;5014224;28;20172;-64
2024/01/13 10:41:25;;;;;;;15.18;5.07;;;;;;;-2.06;100.00;99640.16;5017115;28;20037;-63
2024/01/13 10:43:55;;;;;;;12.85;4.95;;;;;;;-2.16;100.00;99636.41;5016501;28;20101;-63
2024/01/13 10:46:26;;;;;;;12.98;4.75;;;;;;;-2.12;100.00;99637.91;5012008;28;20107;-63
2024/01/13 10:49:02;;;;;;;10.32;4.70;;;;;;;-2.18;100.00;99626.88;5014504;28;20026;-63
2024/01/13 10:51:35;;;;;;;12.55;4.63;;;;;;;-2.11;100.00;99631.66;5009900;28;20026;-62
2024/01/13 10:54:02;;;;;;;10.02;4.32;;;;;;;-2.04;100.00;99626.81;5010855;28;20033;-62
2024/01/13 10:56:29;;;;;;;13.30;4.60;;;;;;;-2.10;100.00;99627.19;5013969;28;20037;-62
2024/01/13 10:58:56;;;;;;;10.88;4.53;;;;;;;-1.90;100.00;99631.16;5012563;28;20053;-62
2024/01/13 11:01:21;;;;;;;12.27;5.07;;;;;;;-2.01;100.00;99635.38;5010664;28;20108;-61
2024/01/13 11:03:49;;;;;;;14.35;5.13;;;;;;;-2.09;100.00;99636.88;5018737;28;20565;-62
2024/01/13 11:06:15;;;;;;;10.20;5.37;;;;;;;-1.92;100.00;99641.03;5012063;28;20030;-62
2024/01/13 11:08:41;;;;;;;12.43;5.05;;;;;;;-1.82;100.00;99627.03;5017567;28;20037;-62
2024/01/13 11:11:09;;;;;;;13.65;4.75;;;;;;;-1.66;100.00;99615.38;5018232;28;20127;-63
2024/01/13 11:13:43;;;;;;;12.40;5.47;;;;;;;-1.55;100.00;99607.50;5011664;28;20117;-63
2024/01/13 11:16:14;;;;;;;13.95;5.10;;;;;;;-1.91;100.00;99582.59;5020333;28;20033;-62